Time;durP1;ratioP1;P1;durP2;ratioP2;P2;SDS_P1;SDS_P2;PMS_P1;PMS_P2;Temp;Humidity;BMP_temperature;BMP_pressure;BME280_temperature;BME280_humidity;BME280_pressure;Samples;Min_cycle;Max_cycle;Signal;HPM_P1;HPM_P2
2021/08/13 00:00:00;;;;;;;24.42;18.05;;;16.50;99.90;;;;;;4971012;28;20207;-72
2021/08/13 00:02:27;;;;;;;25.52;17.70;;;16.30;99.90;;;;;;4985526;28;20125;-71
2021/08/13 00:04:54;;;;;;;25.10;19.58;;;16.40;99.90;;;;;;5006307;28;20262;-71
2021/08/13 00:07:20;;;;;;;28.13;18.92;;;16.40;99.90;;;;;;5006035;28;20104;-72
2021/08/13 00:09:47;;;;;;;25.30;18.60;;;16.40;99.90;;;;;;4990229;28;20538;-71
2021/08/13 00:12:14;;;;;;;27.88;22.02;;;16.40;99.90;;;;;;4989446;28;20479;-73
2021/08/13 00:14:41;;;;;;;29.20;22.27;;;16.20;99.90;;;;;;5002077;28;20096;-73
2021/08/13 00:17:08;;;;;;;27.17;21.48;;;16.00;99.90;;;;;;4993145;28;20038;-74
2021/08/13 00:19:34;;;;;;;27.63;20.98;;;15.90;99.90;;;;;;4988248;28;20105;-74
2021/08/13 00:22:01;;;;;;;26.33;21.42;;;15.90;99.90;;;;;;4985611;28;20224;-71
2021/08/13 00:24:28;;;;;;;24.17;20.70;;;15.90;99.90;;;;;;4989729;28;20054;-71
2021/08/13 00:26:55;;;;;;;27.95;21.83;;;15.80;99.90;;;;;;5007208;28;20518;-71
2021/08/13 00:29:21;;;;;;;26.27;20.23;;;15.90;99.90;;;;;;5005073;28;20548;-71
2021/08/13 00:31:48;;;;;;;27.33;20.05;;;16.00;99.90;;;;;;5006032;28;20304;-71
2021/08/13 00:34:15;;;;;;;23.02;18.52;;;16.00;99.90;;;;;;4995384;28;20054;-72
2021/08/13 00:36:42;;;;;;;27.80;21.13;;;15.90;99.90;;;;;;4967092;28;20046;-71
2021/08/13 00:39:11;;;;;;;23.55;19.30;;;15.90;99.90;;;;;;4982629;28;20403;-72
2021/08/13 00:41:38;;;;;;;28.27;20.85;;;15.90;99.90;;;;;;4964226;28;20235;-71
2021/08/13 00:44:06;;;;;;;27.40;20.55;;;15.70;99.90;;;;;;4974455;28;20502;-71
2021/08/13 00:46:33;;;;;;;25.92;19.83;;;15.80;99.90;;;;;;4979730;28;20485;-71
2021/08/13 00:49:22;;;;;;;22.30;18.58;;;15.80;99.90;;;;;;4985081;28;20058;-71
2021/08/13 00:52:03;;;;;;;27.70;19.27;;;15.70;99.90;;;;;;4983309;28;20073;-71
2021/08/13 00:54:33;;;;;;;28.77;21.90;;;15.70;99.90;;;;;;4953395;28;20049;-72
2021/08/13 00:57:00;;;;;;;26.52;19.05;;;15.50;99.90;;;;;;4992614;28;20046;-71
2021/08/13 00:59:33;;;;;;;26.08;21.05;;;15.50;99.90;;;;;;4954064;28;20605;-72
2021/08/13 01:02:09;;;;;;;23.27;18.45;;;15.60;99.90;;;;;;4968419;28;20092;-71
2021/08/13 01:04:37;;;;;;;25.10;18.80;;;15.50;99.90;;;;;;4951834;28;20159;-71
2021/08/13 01:07:11;;;;;;;25.98;20.00;;;15.40;99.90;;;;;;4997065;28;20073;-71
2021/08/13 01:09:38;;;;;;;25.45;20.98;;;15.30;99.90;;;;;;5005473;28;20058;-72
2021/08/13 01:12:13;;;;;;;27.08;18.13;;;15.20;99.90;;;;;;4987907;28;20057;-71
2021/08/13 01:14:52;;;;;;;23.83;19.38;;;15.20;99.90;;;;;;4997470;28;20164;-71
2021/08/13 01:17:23;;;;;;;29.02;20.02;;;15.20;99.90;;;;;;4972828;28;20108;-71
2021/08/13 01:20:31;;;;;;;24.33;20.70;;;15.10;99.90;;;;;;4969299;28;20499;-71
2021/08/13 01:23:07;;;;;;;29.83;20.65;;;15.10;99.90;;;;;;4986953;28;20048;-72
2021/08/13 01:25:36;;;;;;;25.00;20.10;;;15.20;99.90;;;;;;4987707;28;20390;-71
2021/08/13 01:28:26;;;;;;;34.97;25.02;;;15.30;99.90;;;;;;4986627;28;20065;-71
2021/08/13 01:30:54;;;;;;;30.88;22.65;;;15.20;99.90;;;;;;4985093;28;20046;-71
2021/08/13 01:33:22;;;;;;;25.65;20.40;;;15.20;99.90;;;;;;4968198;28;20394;-72
2021/08/13 01:35:50;;;;;;;29.08;20.95;;;15.00;99.90;;;;;;4977191;28;20046;-72
2021/08/13 01:38:27;;;;;;;25.17;21.25;;;14.90;99.90;;;;;;5005135;28;20385;-71
2021/08/13 01:41:03;;;;;;;24.73;18.95;;;14.90;99.90;;;;;;4961147;28;20077;-73
2021/08/13 01:43:35;;;;;;;25.15;20.33;;;14.80;99.90;;;;;;5000941;28;20073;-71
2021/08/13 01:46:04;;;;;;;25.60;20.27;;;14.70;99.90;;;;;;4996005;28;20050;-71
2021/08/13 01:48:34;;;;;;;26.15;20.23;;;14.80;99.90;;;;;;4968004;28;20105;-71
2021/08/13 01:51:02;;;;;;;27.35;22.08;;;14.70;99.90;;;;;;4967436;28;20042;-71
2021/08/13 01:53:33;;;;;;;27.00;21.88;;;14.70;99.90;;;;;;4990879;28;20526;-71
2021/08/13 01:56:02;;;;;;;26.42;20.90;;;14.60;99.90;;;;;;5002180;28;20120;-71
2021/08/13 01:58:31;;;;;;;25.42;18.70;;;14.50;99.90;;;;;;5003555;28;20057;-71
2021/08/13 02:01:01;;;;;;;22.67;17.50;;;14.50;99.90;;;;;;4987020;28;20422;-71
2021/08/13 02:03:29;;;;;;;23.52;19.50;;;14.40;99.90;;;;;;4997925;28;20054;-72
2021/08/13 02:05:56;;;;;;;26.17;20.42;;;14.50;99.90;;;;;;4982954;28;20338;-72
2021/08/13 02:08:26;;;;;;;24.10;19.10;;;14.40;99.90;;;;;;4985806;28;20050;-71
2021/08/13 02:10:57;;;;;;;29.35;20.75;;;14.40;99.90;;;;;;4982641;28;20054;-71
2021/08/13 02:13:25;;;;;;;26.75;21.88;;;14.50;99.90;;;;;;4991710;28;20546;-72
2021/08/13 02:16:04;;;;;;;30.02;22.20;;;14.50;99.90;;;;;;4986894;28;20050;-71
2021/08/13 02:18:31;;;;;;;28.23;22.35;;;14.60;99.90;;;;;;4988976;28;20570;-71
2021/08/13 02:21:02;;;;;;;34.20;23.67;;;14.60;99.90;;;;;;4964970;28;20039;-72
2021/08/13 02:23:29;;;;;;;32.22;23.80;;;14.70;99.90;;;;;;4968263;28;20050;-72
2021/08/13 02:26:01;;;;;;;28.38;22.65;;;14.50;99.90;;;;;;4980060;28;20053;-71
2021/08/13 02:28:30;;;;;;;29.00;21.83;;;14.30;99.90;;;;;;4979797;28;20570;-72
2021/08/13 02:30:58;;;;;;;27.10;21.13;;;14.30;99.90;;;;;;4980317;28;20051;-72
2021/08/13 02:33:27;;;;;;;30.77;21.48;;;14.20;99.90;;;;;;4966712;28;20054;-72
2021/08/13 02:36:05;;;;;;;32.28;20.95;;;14.10;99.90;;;;;;4982632;28;20061;-71
2021/08/13 02:38:37;;;;;;;30.27;23.23;;;14.20;99.90;;;;;;4986916;28;20065;-72
2021/08/13 02:41:05;;;;;;;30.23;24.20;;;14.30;99.90;;;;;;4969383;28;20553;-71
2021/08/13 02:43:39;;;;;;;38.28;24.52;;;14.40;99.90;;;;;;4951251;28;20297;-72
2021/08/13 02:46:08;;;;;;;31.48;23.20;;;14.30;99.90;;;;;;4973663;28;20129;-71
2021/08/13 02:48:40;;;;;;;30.00;23.90;;;14.20;99.90;;;;;;4977364;28;20049;-71
2021/08/13 02:51:11;;;;;;;32.30;23.80;;;14.20;99.90;;;;;;4987681;28;20042;-71
2021/08/13 02:53:46;;;;;;;28.27;22.13;;;14.30;99.90;;;;;;4967781;28;20050;-72
2021/08/13 02:56:17;;;;;;;31.60;24.73;;;14.40;99.90;;;;;;4994757;28;20052;-71
2021/08/13 02:58:50;;;;;;;36.22;26.52;;;14.40;99.90;;;;;;4967871;28;20046;-71
2021/08/13 03:01:23;;;;;;;34.13;23.83;;;14.40;99.90;;;;;;4981799;28;20506;-72
2021/08/13 03:03:53;;;;;;;32.33;24.48;;;14.40;99.90;;;;;;5015439;28;20088;-71
2021/08/13 03:06:26;;;;;;;34.05;24.25;;;14.30;99.90;;;;;;4978822;28;20056;-71
2021/08/13 03:08:55;;;;;;;35.42;23.55;;;14.30;99.90;;;;;;4986887;28;20050;-72
2021/08/13 03:11:23;;;;;;;32.75;23.67;;;14.20;99.90;;;;;;5002481;28;20046;-71
2021/08/13 03:13:51;;;;;;;32.70;23.30;;;14.40;99.90;;;;;;4983719;28;20048;-71
2021/08/13 03:16:18;;;;;;;31.77;24.10;;;14.40;99.90;;;;;;4976101;28;20070;-72
2021/08/13 03:18:50;;;;;;;30.23;22.35;;;14.50;99.90;;;;;;4966677;28;20046;-72
2021/08/13 03:21:17;;;;;;;27.00;20.45;;;14.60;99.90;;;;;;4985163;28;20101;-72
2021/08/13 03:23:45;;;;;;;24.00;18.40;;;14.50;99.90;;;;;;4968779;28;20043;-72
2021/08/13 03:26:12;;;;;;;25.25;19.45;;;14.30;99.90;;;;;;4972921;28;20046;-72
2021/08/13 03:28:39;;;;;;;26.30;18.45;;;14.20;99.90;;;;;;4980115;28;20499;-72
2021/08/13 03:31:06;;;;;;;22.42;18.30;;;14.20;99.90;;;;;;4947189;28;20058;-72
2021/08/13 03:33:36;;;;;;;25.00;19.15;;;14.20;99.90;;;;;;4994749;28;20105;-72
2021/08/13 03:36:05;;;;;;;23.65;18.52;;;14.20;99.90;;;;;;4984034;28;20050;-72
2021/08/13 03:38:35;;;;;;;25.50;17.40;;;14.20;99.90;;;;;;5002328;28;20253;-71
2021/08/13 03:41:04;;;;;;;20.92;17.52;;;14.20;99.90;;;;;;5002208;28;20234;-72
2021/08/13 03:43:31;;;;;;;25.42;19.45;;;14.10;99.90;;;;;;5002911;28;20495;-72
2021/08/13 03:45:57;;;;;;;23.38;18.80;;;14.10;99.90;;;;;;4992711;28;20117;-72
2021/08/13 03:48:26;;;;;;;25.60;18.88;;;14.10;99.90;;;;;;4968802;28;20093;-72
2021/08/13 03:50:53;;;;;;;25.65;19.08;;;14.20;99.90;;;;;;4984315;28;20109;-71
2021/08/13 03:53:19;;;;;;;27.52;21.17;;;14.30;99.90;;;;;;4967113;28;20039;-72
2021/08/13 03:55:47;;;;;;;32.67;24.23;;;14.40;99.90;;;;;;4996937;28;20174;-71
2021/08/13 03:58:15;;;;;;;36.20;24.65;;;14.30;99.90;;;;;;4981618;28;20092;-72
2021/08/13 04:00:42;;;;;;;28.30;22.20;;;14.20;99.90;;;;;;4975288;28;20525;-72
2021/08/13 04:03:09;;;;;;;31.75;22.60;;;14.20;99.90;;;;;;4950996;28;20173;-71
2021/08/13 04:05:37;;;;;;;28.67;20.02;;;14.10;99.90;;;;;;4982268;28;20050;-72
2021/08/13 04:08:04;;;;;;;28.73;21.17;;;14.20;99.90;;;;;;4989947;28;20056;-72
2021/08/13 04:10:32;;;;;;;24.92;20.52;;;14.10;99.90;;;;;;5002239;28;20046;-72
2021/08/13 04:13:00;;;;;;;29.13;19.73;;;14.10;99.90;;;;;;5002190;28;20528;-72
2021/08/13 04:15:29;;;;;;;23.50;19.92;;;14.20;99.90;;;;;;4992527;28;20451;-72
2021/08/13 04:17:57;;;;;;;24.55;20.83;;;14.30;99.90;;;;;;4972023;28;20418;-72
2021/08/13 04:20:27;;;;;;;27.92;21.23;;;14.40;99.90;;;;;;4982750;28;20126;-72
2021/08/13 04:22:58;;;;;;;26.13;19.95;;;14.20;99.90;;;;;;4982447;28;20489;-72
2021/08/13 04:25:26;;;;;;;28.02;20.55;;;14.10;99.90;;;;;;4983891;28;20058;-72
2021/08/13 04:27:55;;;;;;;24.55;19.20;;;14.10;99.90;;;;;;4970218;28;20442;-72
2021/08/13 04:30:23;;;;;;;25.50;19.65;;;14.10;99.90;;;;;;4988875;28;20064;-71
2021/08/13 04:32:50;;;;;;;23.17;18.88;;;14.10;99.90;;;;;;4985992;28;20054;-72
2021/08/13 04:35:19;;;;;;;23.38;19.67;;;14.00;99.90;;;;;;4986058;28;20418;-72
2021/08/13 04:37:45;;;;;;;27.25;21.05;;;14.10;99.90;;;;;;4970539;28;20039;-72
2021/08/13 04:40:17;;;;;;;25.77;20.17;;;14.20;99.90;;;;;;4987932;28;20069;-72
2021/08/13 04:42:49;;;;;;;25.48;19.60;;;14.40;99.90;;;;;;5005186;28;20467;-72
2021/08/13 04:45:18;;;;;;;26.83;19.63;;;14.20;99.90;;;;;;4979248;28;20046;-72
2021/08/13 04:47:45;;;;;;;23.42;18.73;;;14.10;99.90;;;;;;4988150;28;20105;-73
2021/08/13 04:50:12;;;;;;;28.33;19.48;;;14.00;99.90;;;;;;4984804;28;20065;-73
2021/08/13 04:52:48;;;;;;;24.10;19.80;;;14.00;99.90;;;;;;4970759;28;20590;-72
2021/08/13 04:55:23;;;;;;;33.88;21.30;;;14.10;99.90;;;;;;4985380;28;20056;-72
2021/08/13 04:57:51;;;;;;;;;;;14.10;99.90;;;;;;5013597;23;20046;-84
2021/08/13 05:00:20;;;;;;;26.70;20.17;;;14.10;99.90;;;;;;4978818;28;20406;-84
2021/08/13 05:02:47;;;;;;;27.75;21.13;;;14.00;99.90;;;;;;4993021;28;20280;-84
2021/08/13 05:05:15;;;;;;;28.95;23.02;;;14.00;99.90;;;;;;4959517;28;20038;-83
2021/08/13 05:07:42;;;;;;;32.83;22.50;;;14.10;99.90;;;;;;4957649;28;20051;-84
2021/08/13 05:10:11;;;;;;;29.55;23.27;;;14.10;99.90;;;;;;4984813;28;20049;-84
2021/08/13 05:12:39;;;;;;;27.35;21.35;;;14.20;99.90;;;;;;5009103;28;20112;-83
2021/08/13 05:15:08;;;;;;;27.17;22.13;;;14.40;99.90;;;;;;4995307;28;20052;-84
2021/08/13 05:17:37;;;;;;;26.83;21.05;;;14.30;99.90;;;;;;5000815;28;20050;-84
2021/08/13 05:20:07;;;;;;;28.95;22.42;;;14.50;99.90;;;;;;4979468;28;20068;-84
2021/08/13 05:22:37;;;;;;;24.30;18.67;;;14.60;99.90;;;;;;4991455;28;20045;-84
2021/08/13 05:25:09;;;;;;;23.45;17.60;;;14.70;99.90;;;;;;4991559;28;20188;-84
2021/08/13 05:27:37;;;;;;;22.10;16.65;;;14.70;99.90;;;;;;4991281;28;20073;-84
2021/08/13 05:30:08;;;;;;;22.63;18.00;;;14.90;99.90;;;;;;4973055;28;20046;-84
2021/08/13 05:32:40;;;;;;;24.73;19.00;;;14.90;99.90;;;;;;4985608;28;20094;-84
2021/08/13 05:35:10;;;;;;;20.23;17.60;;;14.90;99.90;;;;;;4993137;28;20038;-85
2021/08/13 05:37:38;;;;;;;21.77;17.83;;;15.00;99.90;;;;;;4992668;28;20049;-85
2021/08/13 05:40:05;;;;;;;27.17;17.27;;;15.10;99.90;;;;;;4989931;28;20490;-85
2021/08/13 05:42:32;;;;;;;21.40;17.08;;;15.20;99.90;;;;;;4999258;28;20336;-84
2021/08/13 05:45:00;;;;;;;19.15;16.33;;;15.20;99.90;;;;;;4985766;28;20203;-84
2021/08/13 05:47:27;;;;;;;23.08;17.65;;;15.40;99.90;;;;;;4994737;28;20266;-84
2021/08/13 05:49:54;;;;;;;23.45;16.30;;;15.60;99.90;;;;;;4975661;28;20065;-84
2021/08/13 05:52:21;;;;;;;21.77;17.52;;;15.90;99.90;;;;;;4974822;28;20513;-84
2021/08/13 05:54:48;;;;;;;21.98;16.52;;;16.10;99.90;;;;;;5007337;28;20140;-85
2021/08/13 05:57:16;;;;;;;21.70;16.80;;;16.30;99.90;;;;;;4990318;28;20217;-84
2021/08/13 05:59:43;;;;;;;20.23;16.52;;;16.40;99.90;;;;;;4975601;28;20129;-84
2021/08/13 06:02:10;;;;;;;21.05;15.27;;;16.70;99.90;;;;;;4994095;28;20539;-85
2021/08/13 06:04:38;;;;;;;19.70;14.15;;;16.80;99.90;;;;;;4988327;28;20049;-85
2021/08/13 06:07:05;;;;;;;20.02;14.65;;;17.20;99.90;;;;;;4988078;28;20081;-84
2021/08/13 06:09:31;;;;;;;17.48;13.57;;;17.40;99.90;;;;;;4989669;28;20053;-85
2021/08/13 06:11:58;;;;;;;18.00;14.70;;;17.60;99.90;;;;;;4979164;28;20521;-85
2021/08/13 06:14:26;;;;;;;20.45;14.55;;;17.70;99.90;;;;;;4994671;28;20144;-85
2021/08/13 06:16:53;;;;;;;18.90;15.18;;;17.70;99.90;;;;;;5012200;28;20128;-85
2021/08/13 06:19:22;;;;;;;18.13;14.20;;;17.80;99.90;;;;;;4998057;28;20482;-85
2021/08/13 06:21:49;;;;;;;19.85;13.82;;;17.90;99.90;;;;;;4990482;28;20046;-84
2021/08/13 06:24:16;;;;;;;19.58;15.07;;;17.90;99.90;;;;;;4991465;28;20077;-85
2021/08/13 06:26:43;;;;;;;15.75;13.13;;;18.00;99.90;;;;;;4996169;28;20046;-85
2021/08/13 06:29:10;;;;;;;16.77;13.10;;;18.10;99.90;;;;;;4989896;28;20092;-85
2021/08/13 06:31:37;;;;;;;15.82;13.23;;;18.40;99.90;;;;;;4960219;28;20111;-85
2021/08/13 06:34:04;;;;;;;13.82;12.32;;;18.70;99.90;;;;;;4981227;28;20145;-85
2021/08/13 06:36:31;;;;;;;16.20;12.48;;;19.30;99.90;;;;;;4983739;28;20045;-85
2021/08/13 06:38:58;;;;;;;15.75;12.02;;;20.00;99.90;;;;;;4991000;28;20050;-85
2021/08/13 06:41:25;;;;;;;16.08;11.13;;;20.50;99.90;;;;;;4973938;28;20053;-78
2021/08/13 06:44:15;;;;;;;14.98;11.68;;;20.90;99.90;;;;;;4990426;28;20517;-78
2021/08/13 06:46:42;;;;;;;15.43;12.15;;;21.40;99.90;;;;;;4992772;28;20549;-78
2021/08/13 06:49:09;;;;;;;13.05;11.75;;;21.80;99.90;;;;;;5001536;28;20080;-79
2021/08/13 06:51:35;;;;;;;13.43;12.13;;;22.50;99.90;;;;;;4967255;28;20046;-79
2021/08/13 06:54:02;;;;;;;14.60;13.20;;;23.00;99.90;;;;;;4975151;28;20304;-79
2021/08/13 06:56:29;;;;;;;14.32;12.95;;;23.50;99.90;;;;;;4999296;28;20047;-79
2021/08/13 06:58:57;;;;;;;16.25;14.82;;;24.20;99.90;;;;;;4984903;28;20430;-79
2021/08/13 07:01:23;;;;;;;14.68;13.38;;;24.60;99.90;;;;;;4970846;28;20408;-79
2021/08/13 07:03:50;;;;;;;15.73;14.43;;;24.60;99.90;;;;;;4998596;28;20478;-77
2021/08/13 07:06:17;;;;;;;16.58;15.00;;;24.60;99.90;;;;;;4969994;28;20229;-79
2021/08/13 07:08:44;;;;;;;17.10;15.60;;;24.80;99.90;;;;;;4969944;28;20054;-78
2021/08/13 07:11:12;;;;;;;16.90;15.07;;;25.00;99.90;;;;;;4973919;28;20086;-79
2021/08/13 07:13:38;;;;;;;17.02;15.65;;;25.50;99.90;;;;;;4990594;28;20054;-79
2021/08/13 07:16:07;;;;;;;16.98;15.65;;;25.80;99.90;;;;;;4973272;28;20054;-79
2021/08/13 07:18:35;;;;;;;16.48;15.10;;;26.00;99.90;;;;;;5001928;28;20100;-79
2021/08/13 07:21:03;;;;;;;17.38;15.85;;;26.10;99.90;;;;;;4986226;28;20778;-79
2021/08/13 07:23:30;;;;;;;16.90;15.60;;;26.00;99.90;;;;;;4981316;28;20062;-79
2021/08/13 07:25:57;;;;;;;17.80;16.30;;;26.10;99.90;;;;;;4986684;28;20470;-79
2021/08/13 07:28:24;;;;;;;17.77;16.30;;;26.20;99.90;;;;;;4979568;28;20521;-79
2021/08/13 07:30:51;;;;;;;18.55;17.15;;;26.30;99.90;;;;;;4968306;28;20426;-79
2021/08/13 07:33:21;;;;;;;18.02;16.60;;;26.10;99.90;;;;;;4964265;28;20132;-79
2021/08/13 07:35:49;;;;;;;18.75;16.95;;;26.30;99.90;;;;;;4981909;28;20097;-79
2021/08/13 07:38:16;;;;;;;18.08;16.42;;;26.60;99.90;;;;;;4970123;28;20483;-79
2021/08/13 07:40:43;;;;;;;20.02;18.05;;;26.70;99.90;;;;;;4990954;28;20058;-79
2021/08/13 07:43:11;;;;;;;20.27;18.25;;;26.70;99.90;;;;;;4989068;28;20180;-80
2021/08/13 07:45:38;;;;;;;18.00;16.50;;;27.10;99.90;;;;;;4996811;28;20306;-79
2021/08/13 07:48:05;;;;;;;19.40;17.83;;;27.20;99.90;;;;;;5005148;28;20053;-79
2021/08/13 07:50:32;;;;;;;20.00;18.35;;;27.40;99.90;;;;;;5003226;28;20127;-79
2021/08/13 07:53:00;;;;;;;18.50;17.02;;;27.50;99.90;;;;;;4957039;28;20196;-79
2021/08/13 07:55:30;;;;;;;20.13;18.42;;;27.20;99.90;;;;;;4991353;28;20160;-79
2021/08/13 07:57:57;;;;;;;19.02;17.42;;;26.90;99.90;;;;;;4994807;28;20046;-80
2021/08/13 08:00:24;;;;;;;19.02;17.52;;;26.80;99.90;;;;;;4985202;28;20084;-79
2021/08/13 08:02:51;;;;;;;19.85;18.10;;;27.00;99.90;;;;;;4997134;28;20530;-79
2021/08/13 08:05:19;;;;;;;19.70;18.10;;;27.20;99.90;;;;;;5023994;28;20041;-78
2021/08/13 08:07:46;;;;;;;20.23;18.20;;;27.30;99.90;;;;;;5024511;28;20096;-78
2021/08/13 08:10:13;;;;;;;19.27;17.63;;;27.10;99.90;;;;;;5001250;28;20136;-79
2021/08/13 08:12:40;;;;;;;18.90;17.35;;;27.10;99.90;;;;;;4980209;28;20038;-78
2021/08/13 08:15:07;;;;;;;19.60;17.90;;;27.10;99.90;;;;;;5007844;28;20080;-80
2021/08/13 08:17:34;;;;;;;19.42;17.63;;;27.10;99.90;;;;;;5003421;28;20038;-84
2021/08/13 08:20:01;;;;;;;18.33;16.77;;;27.10;99.90;;;;;;5001479;28;20095;-82
2021/08/13 08:22:28;;;;;;;17.70;16.20;;;27.10;99.90;;;;;;5006452;28;20049;-78
2021/08/13 08:24:55;;;;;;;18.25;16.70;;;27.60;99.90;;;;;;4989743;28;20046;-86
2021/08/13 08:27:22;;;;;;;18.23;16.67;;;27.30;99.90;;;;;;5006734;28;20050;-78
2021/08/13 08:29:51;;;;;;;19.15;17.23;;;27.20;99.90;;;;;;5009337;28;20049;-78
2021/08/13 08:32:18;;;;;;;19.80;17.90;;;27.30;99.90;;;;;;5008108;28;20111;-78
2021/08/13 08:34:45;;;;;;;19.40;17.67;;;27.10;99.90;;;;;;4992153;28;20037;-78
2021/08/13 08:37:12;;;;;;;18.73;16.95;;;27.10;99.90;;;;;;5006655;28;20054;-78
2021/08/13 08:39:39;;;;;;;17.88;16.40;;;27.20;99.90;;;;;;5008192;28;20481;-78
2021/08/13 08:42:14;;;;;;;17.65;16.15;;;27.60;99.90;;;;;;5007608;28;20054;-79
2021/08/13 08:44:41;;;;;;;17.70;16.08;;;27.40;99.90;;;;;;5013467;28;20069;-79
2021/08/13 08:47:08;;;;;;;16.40;15.00;;;27.50;99.90;;;;;;5013343;28;20050;-79
2021/08/13 08:49:40;;;;;;;17.90;16.30;;;27.60;99.90;;;;;;5000502;28;20080;-79
2021/08/13 08:52:08;;;;;;;17.92;16.52;;;27.70;99.90;;;;;;4998571;28;20061;-79
2021/08/13 08:54:36;;;;;;;17.67;16.20;;;28.10;99.90;;;;;;4989152;28;20046;-80
2021/08/13 08:57:04;;;;;;;17.45;16.25;;;28.30;99.90;;;;;;4978177;28;20077;-79
2021/08/13 08:59:41;;;;;;;18.00;16.35;;;28.30;99.90;;;;;;5033667;28;20050;-79
2021/08/13 09:02:08;;;;;;;17.95;16.42;;;28.20;99.90;;;;;;4988195;28;20453;-80
2021/08/13 09:04:35;;;;;;;18.13;16.45;;;28.10;99.90;;;;;;5004928;28;20045;-80
2021/08/13 09:07:02;;;;;;;17.30;15.63;;;28.20;99.90;;;;;;4978181;28;20759;-80
2021/08/13 09:09:28;;;;;;;17.45;15.80;;;28.20;99.90;;;;;;4989545;28;20762;-78
2021/08/13 09:11:57;;;;;;;17.77;16.17;;;28.30;99.90;;;;;;4995847;28;20046;-80
2021/08/13 09:14:38;;;;;;;18.30;16.83;;;28.40;99.90;;;;;;4982564;28;20044;-78
2021/08/13 09:17:05;;;;;;;17.60;15.98;;;28.60;99.90;;;;;;4989608;28;20045;-79
2021/08/13 09:19:41;;;;;;;17.17;15.70;;;28.80;99.90;;;;;;5005673;28;20073;-79
2021/08/13 09:22:17;;;;;;;16.95;15.45;;;28.60;99.90;;;;;;5011247;28;20148;-79
2021/08/13 09:24:47;;;;;;;17.70;16.20;;;28.70;99.90;;;;;;5037003;28;20046;-79
2021/08/13 09:27:20;;;;;;;18.25;16.52;;;28.90;99.90;;;;;;5030704;28;20050;-78
2021/08/13 09:30:25;;;;;;;18.17;16.65;;;29.00;99.90;;;;;;4990351;28;20050;-79
2021/08/13 09:32:56;;;;;;;17.90;16.35;;;28.90;99.90;;;;;;4896126;29;20087;-79
2021/08/13 09:35:32;;;;;;;19.08;17.15;;;28.70;99.90;;;;;;4921231;29;20429;-78
2021/08/13 09:38:00;;;;;;;19.23;17.63;;;28.80;99.90;;;;;;4948749;28;20097;-78
2021/08/13 09:40:27;;;;;;;19.45;17.83;;;29.10;99.90;;;;;;4952384;28;20046;-77
2021/08/13 09:43:02;;;;;;;18.98;17.25;;;29.10;99.90;;;;;;5003286;28;20514;-77
2021/08/13 09:45:30;;;;;;;19.17;17.60;;;29.00;99.90;;;;;;5009083;28;20064;-78
2021/08/13 09:47:58;;;;;;;17.70;16.38;;;28.70;99.90;;;;;;4959243;28;20058;-79
2021/08/13 09:50:40;;;;;;;18.23;16.88;;;28.50;99.90;;;;;;4987729;28;20337;-78
2021/08/13 09:53:12;;;;;;;17.63;16.35;;;28.30;99.90;;;;;;4988289;28;20361;-85
2021/08/13 09:55:41;;;;;;;18.33;16.65;;;28.30;99.90;;;;;;5006122;28;20046;-81
2021/08/13 09:58:09;;;;;;;18.10;16.70;;;28.40;99.90;;;;;;4972282;28;20041;-79
2021/08/13 10:00:47;;;;;;;16.88;15.55;;;28.30;99.90;;;;;;4985202;28;20060;-79
2021/08/13 10:03:16;;;;;;;18.17;16.67;;;28.50;99.90;;;;;;4990683;28;20153;-80
2021/08/13 10:05:43;;;;;;;18.70;17.10;;;28.70;99.90;;;;;;5002952;28;20049;-77
2021/08/13 10:08:10;;;;;;;18.42;16.83;;;28.80;99.90;;;;;;4986138;28;20058;-78
2021/08/13 10:10:40;;;;;;;18.48;16.80;;;28.80;99.90;;;;;;4978476;28;20230;-80
2021/08/13 10:13:11;;;;;;;18.20;16.40;;;28.80;99.90;;;;;;4961320;28;20038;-81
2021/08/13 10:15:55;;;;;;;18.42;17.02;;;28.50;99.90;;;;;;4986959;28;20368;-82
2021/08/13 10:18:27;;;;;;;19.73;17.80;;;28.50;99.90;;;;;;4982703;28;20083;-82
2021/08/13 10:20:59;;;;;;;19.63;17.80;;;28.70;99.90;;;;;;4974250;28;20050;-81
2021/08/13 10:23:28;;;;;;;20.38;18.65;;;28.60;99.90;;;;;;4990675;28;20043;-82
2021/08/13 10:25:56;;;;;;;19.15;17.55;;;28.40;99.90;;;;;;5006763;28;20069;-81
2021/08/13 10:28:34;;;;;;;19.50;17.88;;;28.30;99.90;;;;;;4981336;28;20077;-82
2021/08/13 10:31:10;;;;;;;19.50;17.88;;;28.20;99.90;;;;;;4987772;28;20050;-84
2021/08/13 10:33:46;;;;;;;18.63;17.10;;;28.30;99.90;;;;;;4991424;28;20077;-79
2021/08/13 10:36:18;;;;;;;18.85;17.45;;;28.50;99.90;;;;;;4969061;28;20406;-79
2021/08/13 10:38:49;;;;;;;19.25;17.65;;;28.40;99.90;;;;;;4972678;28;20058;-80
2021/08/13 10:41:24;;;;;;;17.85;16.17;;;28.40;99.90;;;;;;5008770;28;20050;-81
2021/08/13 10:43:58;;;;;;;18.20;16.60;;;28.50;99.90;;;;;;4978317;28;20062;-82
2021/08/13 10:46:33;;;;;;;18.00;16.55;;;28.70;99.90;;;;;;4997866;28;20073;-80
2021/08/13 10:49:02;;;;;;;18.27;16.67;;;28.90;99.90;;;;;;4990374;28;20046;-79
2021/08/13 10:51:33;;;;;;;17.83;16.02;;;28.90;99.90;;;;;;4985105;28;20138;-81
2021/08/13 10:54:15;;;;;;;19.52;17.42;;;29.00;99.90;;;;;;4979026;28;20242;-81
2021/08/13 10:56:49;;;;;;;17.83;16.08;;;28.80;99.90;;;;;;4995841;23;20929;-83
2021/08/13 10:59:44;;;;;;;17.90;16.35;;;28.70;99.90;;;;;;4962575;28;20521;-82
2021/08/13 11:02:19;;;;;;;18.95;17.10;;;28.60;99.90;;;;;;4954857;28;20599;-86
2021/08/13 11:07:59;;;;;;;18.58;16.92;;;28.80;99.90;;;;;;4973537;28;20047;-84
2021/08/13 11:10:58;;;;;;;20.00;18.17;;;28.60;99.90;;;;;;4966548;28;20069;-86
2021/08/13 11:13:36;;;;;;;20.25;18.45;;;28.40;99.90;;;;;;4996169;28;20111;-84
2021/08/13 11:16:30;;;;;;;19.23;16.13;;;28.30;99.90;;;;;;4994222;28;20049;-82
2021/08/13 11:19:04;;;;;;;18.90;17.30;;;28.50;99.90;;;;;;4960651;28;20047;-86
2021/08/13 11:21:35;;;;;;;19.88;18.23;;;28.50;99.90;;;;;;4956925;28;20141;-83
2021/08/13 11:24:04;;;;;;;19.92;18.17;;;28.80;99.90;;;;;;4958863;28;20055;-86
2021/08/13 11:26:56;;;;;;;20.38;17.42;;;29.10;99.90;;;;;;4955784;28;20546;-84
2021/08/13 11:29:30;;;;;;;18.85;17.25;;;29.40;99.90;;;;;;4963387;28;20046;-85
2021/08/13 11:32:20;;;;;;;19.38;17.73;;;29.60;99.90;;;;;;4981048;28;20053;-81
2021/08/13 11:34:55;;;;;;;19.73;17.75;;;29.00;99.90;;;;;;4993473;28;20050;-83
2021/08/13 11:37:28;;;;;;;18.90;17.13;;;28.90;99.90;;;;;;4966349;28;20491;-82
2021/08/13 11:40:00;;;;;;;19.60;17.85;;;29.10;99.90;;;;;;4980143;28;20046;-84
2021/08/13 11:42:32;;;;;;;19.17;17.48;;;28.90;99.90;;;;;;4996419;28;20412;-82
2021/08/13 11:45:09;;;;;;;20.02;17.67;;;28.50;99.90;;;;;;4989626;28;20549;-87
2021/08/13 11:47:46;;;;;;;18.08;16.45;;;28.30;99.90;;;;;;5000327;28;20058;-85
2021/08/13 11:50:18;;;;;;;17.95;16.38;;;28.40;99.90;;;;;;4984194;28;20120;-84
2021/08/13 11:52:52;;;;;;;18.85;17.20;;;28.30;99.90;;;;;;4966607;28;20066;-83
2021/08/13 11:55:26;;;;;;;18.20;16.63;;;28.30;99.90;;;;;;4962556;28;20636;-85
2021/08/13 11:57:59;;;;;;;19.02;17.23;;;28.40;99.90;;;;;;4974820;28;20035;-85
2021/08/13 12:00:29;;;;;;;18.60;17.13;;;28.50;99.90;;;;;;4963784;28;20539;-84
2021/08/13 12:03:06;;;;;;;20.15;18.25;;;28.70;99.90;;;;;;5000225;28;20053;-86
2021/08/13 12:05:37;;;;;;;20.10;18.35;;;28.60;99.90;;;;;;4999184;28;20077;-87
2021/08/13 12:08:09;;;;;;;19.40;17.42;;;28.50;99.90;;;;;;4989462;28;20047;-84
2021/08/13 12:10:48;;;;;;;21.15;19.15;;;28.30;99.90;;;;;;4979595;28;20050;-87
2021/08/13 12:13:19;;;;;;;19.23;17.40;;;28.20;99.90;;;;;;4946025;28;20058;-85
2021/08/13 12:15:46;;;;;;;19.63;17.65;;;28.40;99.90;;;;;;4979604;28;20043;-84
2021/08/13 12:18:30;;;;;;;20.35;18.38;;;28.50;99.90;;;;;;4980302;28;20096;-86
2021/08/13 12:21:05;;;;;;;21.60;19.33;;;28.10;99.90;;;;;;4981314;28;20040;-81
2021/08/13 12:23:34;;;;;;;44.80;40.05;;;27.80;99.90;;;;;;4947533;28;20070;-85
2021/08/13 12:26:03;;;;;;;22.48;20.27;;;27.80;99.90;;;;;;4980077;28;20074;-83
2021/08/13 12:28:33;;;;;;;23.85;18.73;;;27.60;99.90;;;;;;4978181;28;20049;-83
2021/08/13 12:31:08;;;;;;;23.77;21.38;;;27.50;99.90;;;;;;4978668;28;20058;-82
2021/08/13 12:33:40;;;;;;;22.90;20.38;;;27.50;99.90;;;;;;4978332;28;20078;-84
2021/08/13 12:36:15;;;;;;;24.88;22.38;;;27.70;99.90;;;;;;4977153;28;20057;-83
2021/08/13 12:38:44;;;;;;;21.17;19.08;;;27.70;99.90;;;;;;4963431;28;20077;-83
2021/08/13 12:41:16;;;;;;;23.08;20.67;;;28.00;99.90;;;;;;4995401;28;20097;-86
2021/08/13 12:43:43;;;;;;;21.92;19.88;;;28.10;99.90;;;;;;4996443;28;20051;-86
2021/08/13 12:46:11;;;;;;;22.65;20.15;;;27.80;99.90;;;;;;4979578;28;20050;-84